Time;durP1;ratioP1;P1;durP2;ratioP2;P2;SDS_P1;SDS_P2;PMS_P1;PMS_P2;Temp;Humidity;BMP_temperature;BMP_pressure;BME280_temperature;BME280_humidity;BME280_pressure;Samples;Min_cycle;Max_cycle;Signal;HPM_P1;HPM_P2
2023/05/16 05:00:40;;;;;;;;;2.67;1.67;;;;;12.46;68.23;-19544.59;5948328;23;45194;-85
2023/05/16 05:03:06;;;;;;;;;4.00;1.00;;;;;12.24;68.40;-19538.81;4967808;28;45516;-86
2023/05/16 05:05:31;;;;;;;;;0.67;0.67;;;;;11.79;68.26;-19526.81;4966952;28;45435;-86
2023/05/16 05:08:00;;;;;;;;;0.67;0.67;;;;;11.31;68.03;-19514.28;4976614;28;45368;-86
2023/05/16 05:10:26;;;;;;;;;1.00;0.67;;;;;11.57;68.25;-19521.16;4964848;28;45494;-86
2023/05/16 05:13:42;;;;;;;;;0.00;0.00;;;;;12.54;68.50;-19546.50;4959129;28;45459;-85
2023/05/16 05:16:20;;;;;;;;;;;;;;;;;;;;;
2023/05/16 05:18:45;;;;;;;;;1.67;0.67;;;;;12.55;68.37;-19546.75;4937205;28;71301;-85
2023/05/16 05:21:11;;;;;;;;;0.67;0.67;;;;;11.61;68.40;-19522.09;4975762;28;45602;-85
2023/05/16 05:23:36;;;;;;;;;0.67;0.67;;;;;11.89;68.36;-19529.53;4978370;28;45455;-85
2023/05/16 05:26:01;;;;;;;;;1.33;1.33;;;;;12.30;68.47;-19540.16;4972345;28;46871;-86
2023/05/16 05:29:08;;;;;;;;;1.00;1.00;;;;;11.47;68.40;-19518.47;4959750;28;45496;-86
2023/05/16 05:31:33;;;;;;;;;0.67;0.67;;;;;11.59;68.41;-19521.69;4969843;28;45483;-86
2023/05/16 05:34:05;;;;;;;;;0.67;0.67;;;;;12.70;68.57;-19550.66;4977603;28;45606;-87
2023/05/16 05:36:30;;;;;;;;;0.67;0.00;;;;;12.54;68.49;-19546.63;4960980;28;46314;-88
2023/05/16 05:38:56;;;;;;;;;0.33;0.33;;;;;11.76;68.32;-19526.16;4968176;28;45511;-87
2023/05/16 05:41:27;;;;;;;;;1.67;1.67;;;;;12.59;68.19;-19547.84;4968759;28;45316;-84
2023/05/16 05:44:20;;;;;;;;;0.33;0.33;;;;;12.79;68.61;-19553.09;4968071;28;45606;-84
2023/05/16 05:46:46;;;;;;;;;0.67;0.67;;;;;12.27;68.49;-19539.50;4970972;28;46574;-84
2023/05/16 05:49:12;;;;;;;;;2.00;0.67;;;;;12.34;68.45;-19541.38;4951899;28;45838;-83
2023/05/16 05:51:37;;;;;;;;;0.67;0.00;;;;;12.67;68.58;-19550.13;4967052;28;45486;-82
2023/05/16 05:54:06;;;;;;;;;0.00;0.00;;;;;12.86;68.24;-19554.97;4970760;28;45483;-85
2023/05/16 05:56:46;;;;;;;;;59.50;46.75;;;;;11.79;68.08;-19526.81;4971983;28;46153;-84
2023/05/16 05:59:18;;;;;;;;;11.00;10.33;;;;;12.55;68.34;-19546.75;4946977;28;46032;-82
2023/05/16 06:01:43;;;;;;;;;1.33;1.33;;;;;12.77;68.28;-19552.53;4975090;28;45379;-83
2023/05/16 06:04:09;;;;;;;;;3.00;2.00;;;;;13.01;68.19;-19558.88;4960808;28;45414;-82
2023/05/16 06:06:45;;;;;;;;;3.33;1.67;;;;;12.01;68.32;-19532.63;4971738;28;47406;-82
2023/05/16 06:09:12;;;;;;;;;3.00;1.00;;;;;12.71;68.22;-19550.94;4961673;28;45413;-82
2023/05/16 06:11:38;;;;;;;;;2.33;1.67;;;;;12.94;67.93;-19557.13;4962957;28;45515;-82
2023/05/16 06:14:04;;;;;;;;;2.67;2.33;;;;;12.41;68.28;-19543.13;4972636;28;45436;-83
2023/05/16 06:16:29;;;;;;;;;7.67;5.00;;;;;13.16;68.32;-19562.91;4962088;28;47234;-82
2023/05/16 06:18:55;;;;;;;;;1.67;1.67;;;;;13.19;68.05;-19563.56;4964466;28;45587;-82
2023/05/16 06:21:21;;;;;;;;;1.67;1.67;;;;;13.05;68.00;-19560.06;4967627;28;45511;-81
2023/05/16 06:23:46;;;;;;;;;1.67;1.67;;;;;13.04;67.75;-19559.81;4976662;28;45509;-83
2023/05/16 06:26:11;;;;;;;;;1.67;1.67;;;;;13.27;67.54;-19565.88;4976616;28;45885;-83
2023/05/16 06:28:37;;;;;;;;;0.00;0.00;;;;;13.29;67.61;-19566.41;4977115;28;45476;-83
2023/05/16 06:31:05;;;;;;;;;0.33;0.33;;;;;13.33;67.71;-19567.22;4976343;28;45428;-83
2023/05/16 06:33:30;;;;;;;;;1.00;1.00;;;;;12.50;67.76;-19545.53;4976826;28;45419;-84
2023/05/16 06:35:55;;;;;;;;;0.00;0.00;;;;;12.87;67.64;-19555.38;4963285;28;46486;-82
2023/05/16 06:38:21;;;;;;;;;0.00;0.00;;;;;13.41;67.85;-19569.34;4962026;28;45510;-81
2023/05/16 06:40:47;;;;;;;;;2.00;0.67;;;;;13.31;67.71;-19566.81;4974729;28;45621;-81
2023/05/16 06:43:12;;;;;;;;;1.00;1.00;;;;;13.33;67.88;-19567.22;4966200;28;45436;-83
2023/05/16 06:45:40;;;;;;;;;0.67;0.00;;;;;13.51;67.68;-19572.06;4969404;28;47145;-83
2023/05/16 06:48:17;;;;;;;;;0.00;0.00;;;;;13.12;67.79;-19561.69;4965244;28;49058;-84
2023/05/16 06:50:46;;;;;;;;;0.67;0.67;;;;;12.64;68.07;-19549.31;4965800;28;45495;-83
2023/05/16 06:53:15;;;;;;;;;0.67;0.67;;;;;13.63;67.99;-19575.16;4969479;28;45554;-86
2023/05/16 06:55:40;;;;;;;;;0.00;0.00;;;;;12.92;68.25;-19556.44;4975822;28;47313;-83
2023/05/16 06:58:06;;;;;;;;;0.00;0.00;;;;;13.02;68.04;-19559.28;4976125;28;45384;-83
2023/05/16 07:03:59;;;;;;;;;0.67;0.00;;;;;13.34;67.82;-19567.47;4862172;29;45725;-83
2023/05/16 07:06:25;;;;;;;;;1.00;0.00;;;;;13.52;67.64;-19572.44;4858570;28;46059;-84
2023/05/16 07:08:50;;;;;;;;;0.33;0.33;;;;;13.86;67.68;-19581.31;4860305;28;45412;-84
2023/05/16 07:11:16;;;;;;;;;0.00;0.00;;;;;13.25;67.65;-19565.31;4857778;28;45424;-83
2023/05/16 07:13:41;;;;;;;;;0.00;0.00;;;;;13.83;68.05;-19580.38;4858733;29;45519;-82
2023/05/16 07:16:07;;;;;;;;;1.00;0.00;;;;;13.77;67.52;-19578.78;4858040;29;60039;-82
2023/05/16 07:18:35;;;;;;;;;0.67;0.00;;;;;14.04;67.95;-19585.88;4858926;28;45483;-83
2023/05/16 07:21:00;;;;;;;;;0.00;0.00;;;;;13.45;67.62;-19570.44;4858631;28;45434;-82
2023/05/16 07:23:26;;;;;;;;;0.00;0.00;;;;;13.94;67.45;-19583.47;4859055;29;45384;-82
2023/05/16 07:25:52;;;;;;;;;0.00;0.00;;;;;14.16;67.35;-19589.13;4856931;28;45438;-82
2023/05/16 07:28:17;;;;;;;;;2.00;0.00;;;;;13.93;67.46;-19583.06;4856649;28;45694;-82
2023/05/16 07:30:43;;;;;;;;;0.00;0.00;;;;;14.22;67.29;-19590.72;4858020;29;45486;-82
2023/05/16 07:33:08;;;;;;;;;0.00;0.00;;;;;14.24;67.08;-19591.25;4857898;28;45716;-82
2023/05/16 07:35:33;;;;;;;;;0.00;0.00;;;;;14.28;67.04;-19592.19;4858520;28;47359;-82
2023/05/16 07:37:59;;;;;;;;;2.00;0.00;;;;;14.26;66.99;-19591.81;4858699;28;45804;-82
2023/05/16 07:40:27;;;;;;;;;3.00;1.00;;;;;14.40;66.93;-19595.28;4921802;28;45662;-82
2023/05/16 07:42:52;;;;;;;;;0.00;0.00;;;;;14.44;66.60;-19596.38;4939029;28;45639;-82
2023/05/16 07:45:18;;;;;;;;;0.00;0.00;;;;;14.49;66.51;-19597.72;4858475;28;46558;-83
2023/05/16 07:47:43;;;;;;;;;0.00;0.00;;;;;14.29;66.75;-19592.59;4853892;29;45432;-83
2023/05/16 07:50:09;;;;;;;;;2.00;0.00;;;;;14.41;66.57;-19595.69;4840206;29;45445;-82
2023/05/16 07:52:35;;;;;;;;;0.00;0.00;;;;;14.57;66.42;-19600.00;4852585;29;45615;-82
2023/05/16 07:55:01;;;;;;;;;2.00;0.00;;;;;14.53;66.41;-19598.91;4853231;29;47378;-84
2023/05/16 07:57:26;;;;;;;;;3.00;0.00;;;;;14.55;65.86;-19599.47;4857008;28;45909;-83
2023/05/16 07:59:52;;;;;;;;;1.33;0.33;;;;;14.07;65.64;-19586.69;4938531;28;45459;-83
2023/05/16 08:02:18;;;;;;;;;0.00;0.00;;;;;14.39;65.55;-19595.03;4899992;28;45511;-83
2023/05/16 08:04:43;;;;;;;;;0.00;0.00;;;;;14.20;65.93;-19590.06;4956096;28;47075;-83
2023/05/16 08:07:08;;;;;;;;;0.67;0.33;;;;;14.42;65.35;-19595.97;4964787;28;45451;-83
2023/05/16 08:09:34;;;;;;;;;0.67;0.67;;;;;14.89;65.56;-19608.19;5058582;22;45459;-85
2023/05/16 08:12:02;;;;;;;;;1.00;1.00;;;;;14.78;65.46;-19605.38;4923157;28;45741;-86
2023/05/16 08:14:31;;;;;;;;;0.00;0.00;;;;;14.90;65.54;-19608.59;4934076;28;45726;-86
2023/05/16 08:16:59;;;;;;;;;1.00;1.00;;;;;15.11;65.46;-19613.97;4954008;28;45715;-85
2023/05/16 08:19:25;;;;;;;;;0.00;0.00;;;;;14.98;64.59;-19610.75;5012965;28;45751;-87
2023/05/16 08:21:51;;;;;;;;;1.00;0.00;;;;;15.02;64.86;-19611.69;5002560;28;45831;-90
2023/05/16 08:24:16;;;;;;;;;0.00;0.00;;;;;15.22;64.27;-19616.91;4965216;28;45680;-87
2023/05/16 08:26:42;;;;;;;;;0.00;0.00;;;;;15.43;64.34;-19622.41;5015955;28;45804;-89
2023/05/16 08:29:07;;;;;;;;;12.00;11.33;;;;;15.48;64.12;-19623.75;4931947;28;45528;-88
2023/05/16 08:31:32;;;;;;;;;2.00;2.00;;;;;15.29;63.81;-19618.66;5023952;28;45695;-86
2023/05/16 08:33:58;;;;;;;;;1.00;1.00;;;;;15.52;64.14;-19624.81;4937308;28;45510;-87
2023/05/16 08:36:23;;;;;;;;;1.33;1.00;;;;;15.42;64.11;-19622.16;4975615;28;45452;-87
2023/05/16 08:38:49;;;;;;;;;0.00;0.00;;;;;15.71;63.78;-19629.66;4922743;28;45437;-88
2023/05/16 08:41:15;;;;;;;;;0.00;0.00;;;;;15.64;63.53;-19627.91;5011400;28;45612;-88
2023/05/16 08:43:40;;;;;;;;;0.00;0.00;;;;;15.57;63.49;-19626.03;4923435;28;45442;-88
2023/05/16 08:46:07;;;;;;;;;2.00;0.00;;;;;15.74;63.41;-19630.47;4931927;28;47054;-86
2023/05/16 08:48:33;;;;;;;;;0.00;0.00;;;;;15.59;62.62;-19626.72;4997913;28;45430;-88
2023/05/16 08:51:01;;;;;;;;;0.00;0.00;;;;;15.95;62.94;-19635.97;5019955;28;45456;-88
2023/05/16 08:53:36;;;;;;;;;2.00;0.00;;;;;16.01;62.51;-19637.72;4917351;28;46501;-88
2023/05/16 08:56:03;;;;;;;;;0.00;0.00;;;;;15.87;62.16;-19633.81;4930533;28;45473;-87
2023/05/16 08:58:29;;;;;;;;;0.00;0.00;;;;;15.97;60.92;-19636.63;4991780;28;45733;-86
2023/05/16 09:00:55;;;;;;;;;2.00;0.00;;;;;16.45;60.84;-19649.22;5007125;28;45414;-90
2023/05/16 09:03:23;;;;;;;;;0.00;0.00;;;;;16.69;61.21;-19655.38;4934353;28;46368;-88
2023/05/16 09:05:48;;;;;;;;;0.00;0.00;;;;;17.28;60.51;-19670.78;4927063;28;45733;-88
2023/05/16 09:08:14;;;;;;;;;0.00;0.00;;;;;18.08;59.65;-19691.78;4929166;28;46927;-88
2023/05/16 09:10:40;;;;;;;;;0.00;0.00;;;;;18.84;58.61;-19711.44;5030695;28;45449;-88
2023/05/16 09:13:05;;;;;;;;;3.00;0.00;;;;;19.66;58.19;-19732.81;5016184;28;48445;-88
2023/05/16 09:15:32;;;;;;;;;1.75;0.00;;;;;20.47;56.83;-19753.88;5017545;28;46910;-90
2023/05/16 09:17:59;;;;;;;;;0.50;0.00;;;;;21.23;56.19;-19773.88;5015703;28;45788;-89
2023/05/16 09:20:25;;;;;;;;;0.00;0.00;;;;;21.93;54.61;-19791.97;5013062;28;45585;-89
2023/05/16 09:22:56;;;;;;;;;0.00;0.00;;;;;22.70;53.09;-19811.91;5008456;28;45530;-89
2023/05/16 09:25:23;;;;;;;;;0.00;0.00;;;;;23.43;51.33;-19830.91;4997529;28;45789;-88
2023/05/16 09:27:57;;;;;;;;;0.25;0.00;;;;;24.00;49.54;-18491.56;4996654;28;45897;-90
2023/05/16 09:30:27;;;;;;;;;0.25;0.00;;;;;24.73;48.57;-16815.91;4998426;28;45569;-91
2023/05/16 09:32:53;;;;;;;;;0.00;0.00;;;;;25.30;47.43;-15810.88;5001600;28;46525;-89
2023/05/16 09:35:22;;;;;;;;;0.00;0.00;;;;;25.72;46.83;-14461.59;5005413;28;45469;-88
2023/05/16 09:37:49;;;;;;;;;0.00;0.00;;;;;25.80;45.67;-9028.13;5013192;28;46175;-87
2023/05/16 09:40:15;;;;;;;;;1.00;0.00;;;;;25.66;44.58;-3585.53;5027429;28;45773;-86
2023/05/16 09:42:42;;;;;;;;;0.00;0.00;;;;;25.56;44.54;-521.84;5016411;28;46309;-87
2023/05/16 09:45:12;;;;;;;;;1.00;0.00;;;;;25.42;43.76;6975.13;5014982;28;45554;-87
2023/05/16 09:47:44;;;;;;;;;0.50;0.00;;;;;24.88;43.98;12082.09;5012714;28;45603;-87
2023/05/16 09:50:12;;;;;;;;;0.00;0.00;;;;;24.13;44.05;13768.59;5016031;28;45459;-87
2023/05/16 09:52:37;;;;;;;;;0.00;0.00;;;;;24.07;43.72;20283.41;5014021;28;46456;-88
2023/05/16 09:55:06;;;;;;;;;0.00;0.00;;;;;23.72;43.96;22650.03;5003358;28;45632;-87
2023/05/16 09:57:31;;;;;;;;;0.00;0.00;;;;;23.59;44.03;26459.13;5012237;28;45451;-87
2023/05/16 09:59:58;;;;;;;;;0.00;0.00;;;;;23.22;44.34;25899.81;5012080;28;45760;-87
2023/05/16 10:02:24;;;;;;;;;0.50;0.00;;;;;22.79;44.14;27312.16;5014633;28;46193;-92
2023/05/16 10:04:50;;;;;;;;;0.00;0.00;;;;;23.13;43.78;27849.53;5013376;28;45740;-92
2023/05/16 10:07:15;;;;;;;;;1.00;0.00;;;;;23.12;44.25;27370.91;5028174;28;45616;-93
2023/05/16 10:09:42;;;;;;;;;0.75;0.00;;;;;23.07;44.10;29731.59;5002685;28;45535;-89
2023/05/16 10:12:12;;;;;;;;;0.00;0.00;;;;;22.86;44.17;30585.63;4933065;28;46304;-90
2023/05/16 10:14:40;;;;;;;;;0.00;0.00;;;;;22.70;43.21;34799.97;5001015;28;45364;-91
2023/05/16 10:17:13;;;;;;;;;8.33;7.00;;;;;22.83;43.63;33602.63;4999933;28;45721;-94
2023/05/16 10:19:39;;;;;;;;;14.33;12.67;;;;;22.82;43.82;34994.59;4933673;28;45624;-91
2023/05/16 10:22:06;;;;;;;;;2.00;0.00;;;;;22.55;43.13;36745.00;4947423;28;45912;-89
2023/05/16 10:24:49;;;;;;;;;0.00;0.00;;;;;22.87;42.84;37987.88;4984489;28;45825;-92
2023/05/16 10:27:15;;;;;;;;;0.00;0.00;;;;;22.52;43.36;38649.16;4933379;28;45783;-92
2023/05/16 10:29:41;;;;;;;;;0.00;0.00;;;;;22.35;42.96;39739.59;4934376;28;45446;-89
2023/05/16 10:32:07;;;;;;;;;1.50;0.00;;;;;22.73;43.13;37304.72;4947185;28;46443;-88
2023/05/16 10:34:33;;;;;;;;;0.00;0.00;;;;;23.60;41.90;40332.59;4997455;28;45423;-89
2023/05/16 10:37:00;;;;;;;;;0.00;0.00;;;;;24.32;42.09;38987.50;4923127;28;45675;-87
2023/05/16 10:39:27;;;;;;;;;0.00;0.00;;;;;25.41;41.08;36522.81;4965649;28;45463;-95
2023/05/16 10:41:53;;;;;;;;;0.00;0.00;;;;;26.02;39.72;37892.34;5003106;28;47081;-93
2023/05/16 10:44:19;;;;;;;;;0.00;0.00;;;;;26.66;38.97;42736.22;5001087;28;45774;-93
2023/05/16 10:46:46;;;;;;;;;0.00;0.00;;;;;26.62;37.95;57063.25;4939475;28;45477;-93
2023/05/16 10:49:23;;;;;;;;;0.00;0.00;;;;;26.51;37.79;60279.59;4929198;28;45833;-95
2023/05/16 10:52:12;;;;;;;;;0.00;0.00;;;;;26.65;38.17;62235.47;5000066;28;47980;-94
2023/05/16 10:54:39;;;;;;;;;1.00;0.00;;;;;27.00;37.97;63740.88;4992257;28;45696;-94
2023/05/16 10:57:21;;;;;;;;;1.00;0.00;;;;;27.43;37.20;64891.13;5019273;28;45595;-93
2023/05/16 10:59:48;;;;;;;;;0.00;0.00;;;;;27.82;36.81;64757.06;5015187;28;45606;-93
2023/05/16 11:02:28;;;;;;;;;1.25;0.00;;;;;28.37;35.69;68288.09;4939392;28;46073;-96
2023/05/16 11:04:58;;;;;;;;;0.00;0.00;;;;;28.70;35.94;69379.34;4993953;28;46016;-93
2023/05/16 11:07:29;;;;;;;;;0.00;0.00;;;;;29.03;34.58;72054.34;4999577;28;45399;-90
2023/05/16 11:10:09;;;;;;;;;0.00;0.00;;;;;29.22;34.96;72642.09;4935055;28;45496;-91
2023/05/16 11:12:57;;;;;;;;;1.00;0.00;;;;;29.39;34.57;72479.22;4919555;28;45328;-91
2023/05/16 11:15:25;;;;;;;;;0.00;0.00;;;;;29.37;33.67;72572.19;4970964;28;45771;-90
2023/05/16 11:18:04;;;;;;;;;0.00;0.00;;;;;29.09;32.56;72876.72;4918982;28;45431;-90
2023/05/16 11:20:31;;;;;;;;;0.00;0.00;;;;;28.70;33.21;72804.25;4947533;28;45480;-87
2023/05/16 11:23:18;;;;;;;;;1.00;0.00;;;;;28.75;33.99;72928.25;4992910;28;46353;-87
2023/05/16 11:25:46;;;;;;;;;0.00;0.00;;;;;28.74;33.16;72542.88;4941560;28;45575;-88
2023/05/16 11:28:13;;;;;;;;;1.00;0.00;;;;;28.48;32.91;72405.06;4922923;28;45577;-88
2023/05/16 11:30:48;;;;;;;;;0.75;0.00;;;;;28.03;32.93;72208.50;5000432;28;45414;-88
2023/05/16 11:33:14;;;;;;;;;0.00;0.00;;;;;28.07;33.33;72162.34;5001849;28;47190;-88
2023/05/16 11:35:39;;;;;;;;;0.00;0.00;;;;;28.10;33.72;72247.09;4936052;28;45508;-89
2023/05/16 11:38:05;;;;;;;;;0.00;0.00;;;;;28.20;33.90;72392.78;4994217;28;45729;-88
2023/05/16 11:40:30;;;;;;;;;1.00;0.00;;;;;28.25;33.28;72066.31;4934625;28;45526;-88
2023/05/16 11:42:59;;;;;;;;;0.00;0.00;;;;;28.24;33.30;72138.53;4931116;28;45856;-87
2023/05/16 11:45:25;;;;;;;;;0.00;0.00;;;;;28.06;32.95;71946.16;4931019;28;45497;-89
2023/05/16 11:47:50;;;;;;;;;0.50;0.00;;;;;28.32;32.51;71885.00;4934635;28;45750;-88
2023/05/16 11:50:18;;;;;;;;;0.25;0.00;;;;;28.26;33.23;72067.53;4934609;28;45819;-88
2023/05/16 11:52:52;;;;;;;;;0.00;0.00;;;;;28.21;33.03;71972.16;4932443;28;46497;-89
2023/05/16 11:55:20;;;;;;;;;0.00;0.00;;;;;27.69;32.95;71700.63;4932286;28;45445;-89
2023/05/16 11:57:46;;;;;;;;;0.00;0.00;;;;;28.19;33.07;71692.16;4922290;28;45371;-88
2023/05/16 12:00:20;;;;;;;;;0.00;0.00;;;;;28.29;32.75;71733.75;4915178;28;45501;-88
2023/05/16 12:02:47;;;;;;;;;0.00;0.00;;;;;28.07;32.06;71590.34;4915964;28;45732;-88
2023/05/16 12:05:13;;;;;;;;;0.00;0.00;;;;;27.92;31.95;71523.66;4919271;28;45463;-88
2023/05/16 12:07:39;;;;;;;;;0.00;0.00;;;;;28.20;32.00;71476.28;4921164;28;45523;-88
2023/05/16 12:10:06;;;;;;;;;0.00;0.00;;;;;28.10;32.17;71496.72;4920487;28;46801;-87
2023/05/16 12:12:32;;;;;;;;;0.50;0.00;;;;;28.20;31.98;71372.28;4915460;28;47278;-88
2023/05/16 12:14:58;;;;;;;;;0.00;0.00;;;;;27.87;31.84;71257.06;4930944;28;45502;-88
2023/05/16 12:17:24;;;;;;;;;0.00;0.00;;;;;27.88;31.83;71165.19;4998857;28;45474;-88
2023/05/16 12:19:49;;;;;;;;;0.00;0.00;;;;;27.36;32.51;71174.34;4921781;28;45489;-88
2023/05/16 12:22:17;;;;;;;;;0.50;0.00;;;;;26.96;32.08;70961.16;4929018;28;46404;-87
2023/05/16 12:24:43;;;;;;;;;0.00;0.00;;;;;26.60;32.54;71038.03;4936776;28;45634;-89
2023/05/16 12:27:08;;;;;;;;;0.00;0.00;;;;;26.68;32.47;70897.88;4929804;28;45466;-88
2023/05/16 12:29:34;;;;;;;;;0.00;0.00;;;;;26.46;32.37;70866.91;5002352;28;45472;-88
2023/05/16 12:31:59;;;;;;;;;0.00;0.00;;;;;25.98;32.92;70757.72;4935418;28;45554;-88
2023/05/16 12:34:28;;;;;;;;;0.00;0.00;;;;;26.08;33.05;70772.56;4934404;28;45934;-88
2023/05/16 12:36:53;;;;;;;;;1.00;0.00;;;;;25.92;33.12;70666.41;4930414;28;45581;-88
2023/05/16 12:39:19;;;;;;;;;0.00;0.00;;;;;25.80;33.41;70744.59;4936081;28;45480;-88
2023/05/16 12:41:45;;;;;;;;;0.00;0.00;;;;;25.59;33.51;70677.00;4936434;28;45821;-88
2023/05/16 12:44:13;;;;;;;;;0.00;0.00;;;;;25.54;33.33;70706.16;5003176;28;45643;-88
2023/05/16 12:46:43;;;;;;;;;0.00;0.00;;;;;25.31;33.45;70613.25;5012666;28;45449;-88
2023/05/16 12:49:08;;;;;;;;;0.00;0.00;;;;;25.19;33.80;70634.53;4992126;28;45605;-88
2023/05/16 12:51:34;;;;;;;;;0.00;0.00;;;;;25.30;34.21;70572.03;5016610;28;47040;-90
2023/05/16 12:54:10;;;;;;;;;1.00;0.00;;;;;25.20;34.17;70671.56;4917216;28;45586;-89
2023/05/16 12:56:40;;;;;;;;;0.00;0.00;;;;;24.88;33.56;70598.16;4917630;28;45695;-90
2023/05/16 12:59:05;;;;;;;;;0.50;0.00;;;;;24.58;33.57;70538.06;4917537;28;45766;-89
2023/05/16 13:01:31;;;;;;;;;0.00;0.00;;;;;24.66;34.05;70518.00;4929677;28;46391;-89
2023/05/16 13:03:56;;;;;;;;;0.50;0.00;;;;;24.66;34.85;70520.13;4932414;28;45466;-89
2023/05/16 13:06:22;;;;;;;;;0.00;0.00;;;;;24.29;34.52;70425.16;5004531;28;45389;-89
2023/05/16 13:08:47;;;;;;;;;0.00;0.00;;;;;24.52;34.21;70441.56;4940237;28;45414;-89
2023/05/16 13:11:12;;;;;;;;;0.00;0.00;;;;;24.42;34.86;70446.28;4939991;28;45345;-90
2023/05/16 13:13:38;;;;;;;;;0.00;0.00;;;;;24.26;34.46;70389.69;4929444;28;45531;-89
2023/05/16 13:16:03;;;;;;;;;0.00;0.00;;;;;24.03;34.17;70335.47;5018292;28;45697;-89
2023/05/16 13:18:30;;;;;;;;;0.00;0.00;;;;;24.21;34.36;70383.66;4927806;28;45538;-89
2023/05/16 13:20:55;;;;;;;;;0.00;0.00;;;;;24.13;34.29;70366.47;5001413;28;47355;-89
2023/05/16 13:23:20;;;;;;;;;0.00;0.00;;;;;23.91;34.80;70358.81;4935171;28;45599;-89
2023/05/16 13:25:46;;;;;;;;;0.00;0.00;;;;;23.94;34.59;70389.44;5014488;28;45515;-88
2023/05/16 13:28:11;;;;;;;;;0.00;0.00;;;;;23.80;35.11;70352.09;4920293;28;45564;-88
2023/05/16 13:30:37;;;;;;;;;0.00;0.00;;;;;23.83;34.88;70305.91;4915324;28;46576;-89
2023/05/16 13:33:03;;;;;;;;;1.50;0.00;;;;;23.53;34.99;70308.66;4917344;28;45446;-89
2023/05/16 13:35:28;;;;;;;;;0.00;0.00;;;;;23.38;35.21;70264.75;4916828;28;45442;-89
2023/05/16 13:37:54;;;;;;;;;0.00;0.00;;;;;23.44;34.76;70244.41;4915866;28;45506;-89
2023/05/16 13:40:19;;;;;;;;;0.00;0.00;;;;;23.27;35.18;70324.34;4919408;28;46731;-88
2023/05/16 13:42:44;;;;;;;;;0.00;0.00;;;;;23.34;35.21;70227.53;4931359;28;45766;-88
2023/05/16 13:45:11;;;;;;;;;0.75;0.50;;;;;23.43;34.98;70231.78;4934480;28;45840;-89
2023/05/16 13:47:36;;;;;;;;;0.00;0.00;;;;;23.16;35.25;70222.00;4934956;28;45374;-89
2023/05/16 13:50:05;;;;;;;;;1.00;1.00;;;;;23.22;35.99;70285.91;5001318;28;47433;-88
2023/05/16 13:52:30;;;;;;;;;1.00;1.00;;;;;23.23;35.98;70287.13;4933026;28;45489;-87
2023/05/16 13:54:56;;;;;;;;;0.00;0.00;;;;;23.11;35.84;70215.97;4932143;28;45527;-84
2023/05/16 13:57:21;;;;;;;;;0.00;0.00;;;;;23.15;36.06;70218.69;4934705;28;45497;-86
2023/05/16 13:59:47;;;;;;;;;0.00;0.00;;;;;23.13;35.44;70253.44;4934110;28;46134;-86
2023/05/16 14:02:12;;;;;;;;;0.00;0.00;;;;;22.88;36.42;70334.47;4934560;28;45498;-85
2023/05/16 14:04:38;;;;;;;;;1.00;1.00;;;;;23.02;36.18;70203.00;4988940;28;45622;-86
2023/05/16 14:07:04;;;;;;;;;0.00;0.00;;;;;22.77;36.09;70209.06;4991142;28;45935;-86
2023/05/16 14:09:30;;;;;;;;;0.00;0.00;;;;;23.01;36.01;70217.38;4895627;28;1117359;-86
2023/05/16 14:11:55;;;;;;;;;0.00;0.00;;;;;22.89;36.04;70216.97;4935128;28;45742;-86
2023/05/16 14:14:21;;;;;;;;;0.75;0.75;;;;;22.80;35.84;70144.06;4934683;28;45773;-86
2023/05/16 14:16:46;;;;;;;;;1.00;1.00;;;;;22.81;35.48;70126.41;4987328;28;45661;-87
2023/05/16 14:19:12;;;;;;;;;0.00;0.00;;;;;22.72;35.71;70168.00;4928311;28;46263;-86
2023/05/16 14:21:37;;;;;;;;;0.00;0.00;;;;;22.59;36.10;70140.91;5017585;28;45491;-86
2023/05/16 14:24:03;;;;;;;;;0.00;0.00;;;;;22.50;36.32;70028.84;4933888;28;45401;-86
2023/05/16 14:26:28;;;;;;;;;0.00;0.00;;;;;22.62;36.09;70083.13;4935130;28;45420;-86
2023/05/16 14:28:54;;;;;;;;;0.00;0.00;;;;;22.48;36.30;70141.75;4934225;28;45468;-86
2023/05/16 14:31:20;;;;;;;;;0.50;0.50;;;;;22.62;36.45;70139.16;4934991;28;45851;-87
2023/05/16 14:33:45;;;;;;;;;0.00;0.00;;;;;22.54;36.76;70135.50;4996091;28;45549;-87
2023/05/16 14:36:12;;;;;;;;;0.00;0.00;;;;;22.34;36.05;70074.25;4917888;28;45486;-86
2023/05/16 14:38:37;;;;;;;;;0.00;0.00;;;;;22.05;36.63;70048.53;4923625;28;45518;-88
2023/05/16 14:41:03;;;;;;;;;0.00;0.00;;;;;22.33;36.51;70114.06;4934563;28;45391;-88
2023/05/16 14:43:28;;;;;;;;;0.00;0.00;;;;;22.25;36.12;70090.34;4933719;28;45915;-86
2023/05/16 14:45:53;;;;;;;;;0.00;0.00;;;;;22.34;36.33;70101.19;4927665;28;45493;-87
2023/05/16 14:48:19;;;;;;;;;0.00;0.00;;;;;22.12;36.48;70051.63;4923764;28;46695;-87
2023/05/16 14:50:44;;;;;;;;;0.00;0.00;;;;;22.27;36.39;70077.19;4929209;28;45564;-87
2023/05/16 14:53:10;;;;;;;;;0.00;0.00;;;;;22.23;36.64;70034.63;4927726;28;45514;-87
2023/05/16 14:55:35;;;;;;;;;0.00;0.00;;;;;22.04;36.86;70062.91;4918614;28;45483;-87
2023/05/16 14:58:01;;;;;;;;;0.25;0.00;;;;;22.06;36.35;70035.69;4916258;28;46763;-87
2023/05/16 15:00:26;;;;;;;;;0.00;0.00;;;;;21.94;36.62;69992.22;5010150;28;45463;-86
2023/05/16 15:02:52;;;;;;;;;0.00;0.00;;;;;21.85;36.59;70003.50;4921966;28;45463;-87
2023/05/16 15:05:18;;;;;;;;;1.00;0.00;;;;;22.05;36.39;70069.50;4930859;28;45463;-86
2023/05/16 15:07:43;;;;;;;;;0.00;0.00;;;;;21.82;37.00;70026.22;4927773;28;45457;-86
2023/05/16 15:10:10;;;;;;;;;0.00;0.00;;;;;21.88;37.08;69999.03;4927238;28;45397;-86
2023/05/16 15:12:35;;;;;;;;;0.00;0.00;;;;;21.99;36.82;70079.03;4934260;28;45768;-87
2023/05/16 15:15:01;;;;;;;;;0.00;0.00;;;;;21.96;36.86;70012.84;4933760;28;45494;-86
2023/05/16 15:17:26;;;;;;;;;0.50;0.00;;;;;21.71;36.89;69935.50;4932211;28;45895;-86
2023/05/16 15:19:53;;;;;;;;;0.00;0.00;;;;;21.78;37.04;69978.94;5016328;28;45537;-86
2023/05/16 15:22:19;;;;;;;;;0.00;0.00;;;;;21.63;37.25;69952.78;5016891;28;45706;-87
2023/05/16 15:24:44;;;;;;;;;0.00;0.00;;;;;21.75;37.30;69996.88;4929642;28;45494;-86
2023/05/16 15:27:10;;;;;;;;;0.00;0.00;;;;;21.72;37.78;69971.69;4934006;28;46257;-86
2023/05/16 15:29:36;;;;;;;;;0.00;0.00;;;;;21.53;37.45;69991.88;4928142;28;45786;-86
2023/05/16 15:32:05;;;;;;;;;0.00;0.00;;;;;21.47;37.83;69928.75;4927835;28;45414;-86
2023/05/16 15:34:30;;;;;;;;;0.25;0.00;;;;;21.51;37.76;69995.47;4925776;28;45426;-86
2023/05/16 15:36:57;;;;;;;;;0.00;0.00;;;;;21.66;38.11;69992.00;4933444;28;45805;-86
2023/05/16 15:39:24;;;;;;;;;0.00;0.00;;;;;21.60;37.91;69933.63;5000084;28;45524;-85
2023/05/16 15:41:50;;;;;;;;;1.00;1.00;;;;;20.80;37.26;69847.22;4933060;28;45520;-88
2023/05/16 15:44:15;;;;;;;;;1.50;0.00;;;;;21.19;37.83;69931.19;4930780;28;45496;-88
2023/05/16 15:46:41;;;;;;;;;0.00;0.00;;;;;21.19;38.15;69879.47;4934075;28;46069;-88
2023/05/16 15:49:08;;;;;;;;;0.00;0.00;;;;;21.44;37.87;69900.91;4934887;28;45485;-87
2023/05/16 15:51:34;;;;;;;;;0.00;0.00;;;;;21.40;37.98;69931.06;4920967;28;46218;-87
2023/05/16 15:54:00;;;;;;;;;1.00;0.00;;;;;21.19;38.15;69911.75;4924692;28;45526;-87
2023/05/16 15:56:26;;;;;;;;;0.00;0.00;;;;;21.38;38.13;69950.78;4936768;28;45422;-86
2023/05/16 15:58:51;;;;;;;;;0.00;0.00;;;;;21.27;37.99;69905.25;4937002;28;45425;-87
2023/05/16 16:01:16;;;;;;;;;0.00;0.00;;;;;21.25;38.30;69916.88;5004269;28;45601;-87
2023/05/16 16:03:42;;;;;;;;;0.00;0.00;;;;;21.33;38.77;69925.94;4931400;28;46665;-86
2023/05/16 16:06:07;;;;;;;;;0.00;0.00;;;;;20.98;38.67;69983.91;4993173;28;48768;-90
2023/05/16 16:08:32;;;;;;;;;1.00;0.00;;;;;21.08;38.45;69902.41;4924926;28;45628;-89
2023/05/16 16:10:58;;;;;;;;;0.00;0.00;;;;;21.05;38.57;69866.53;4927598;28;45596;-88
2023/05/16 16:13:23;;;;;;;;;0.00;0.00;;;;;21.10;38.49;69852.53;4927611;28;45620;-87
2023/05/16 16:15:49;;;;;;;;;0.00;0.00;;;;;21.23;38.58;69884.88;4930769;28;46579;-87
2023/05/16 16:18:17;;;;;;;;;2.00;0.00;;;;;21.14;39.15;69860.00;5013388;28;45470;-88
2023/05/16 16:20:42;;;;;;;;;1.00;1.00;;;;;20.93;38.55;69862.88;5011474;28;45518;-91
2023/05/16 16:23:11;;;;;;;;;0.00;0.00;;;;;20.75;38.83;69822.38;5021129;28;45933;-96
2023/05/16 16:25:36;;;;;;;;;0.00;0.00;;;;;20.56;38.42;69808.22;5005674;28;46868;-92
2023/05/16 16:28:02;;;;;;;;;0.00;0.00;;;;;20.22;38.75;69814.75;5005676;28;45600;-93
2023/05/16 16:30:28;;;;;;;;;0.00;0.00;;;;;20.95;38.63;69916.34;5020369;28;45400;-94
2023/05/16 16:32:53;;;;;;;;;0.00;0.00;;;;;20.83;38.51;69794.97;4931804;28;45485;-93
2023/05/16 16:35:18;;;;;;;;;0.00;0.00;;;;;20.17;38.42;69800.09;5001804;28;47675;-94